Time;durP1;ratioP1;P1;durP2;ratioP2;P2;SDS_P1;SDS_P2;PMS_P1;PMS_P2;Temp;Humidity;BMP_temperature;BMP_pressure;BME280_temperature;BME280_humidity;BME280_pressure;Samples;Min_cycle;Max_cycle;Signal;HPM_P1;HPM_P2
2021/05/02 00:00:35;;;;;;;0.40;0.40;;;7.20;99.90;;;;;;5032647;28;20227;-79
2021/05/02 00:03:04;;;;;;;0.40;0.40;;;7.30;99.90;;;;;;5047480;28;20227;-82
2021/05/02 00:05:32;;;;;;;0.40;0.40;;;7.30;99.90;;;;;;5067029;28;20235;-80
2021/05/02 00:07:59;;;;;;;0.40;0.40;;;7.30;99.90;;;;;;5047559;28;20534;-79
2021/05/02 00:10:29;;;;;;;3.97;0.60;;;7.40;99.90;;;;;;5052139;28;20264;-80
2021/05/02 00:12:59;;;;;;;0.30;0.30;;;7.40;99.90;;;;;;5050142;28;20228;-80
2021/05/02 00:15:26;;;;;;;0.70;0.67;;;7.40;99.90;;;;;;5052121;28;20249;-80
2021/05/02 00:17:53;;;;;;;0.30;0.30;;;7.40;99.90;;;;;;5033440;28;21094;-81
2021/05/02 00:20:22;;;;;;;1.30;0.60;;;7.40;99.90;;;;;;5053203;28;20691;-81
2021/05/02 00:22:51;;;;;;;0.30;0.30;;;7.40;99.90;;;;;;5047356;28;20213;-79
2021/05/02 00:25:21;;;;;;;0.30;0.30;;;7.40;99.90;;;;;;5049686;28;20220;-79
2021/05/02 00:27:47;;;;;;;0.40;0.40;;;7.40;99.90;;;;;;5049376;28;20213;-81
2021/05/02 00:30:15;;;;;;;0.50;0.50;;;7.40;99.90;;;;;;5042094;28;20737;-80
2021/05/02 00:32:46;;;;;;;0.40;0.40;;;7.40;99.90;;;;;;5064492;28;20193;-82
2021/05/02 00:35:13;;;;;;;0.87;0.40;;;7.40;99.90;;;;;;5052980;28;20215;-79
2021/05/02 00:37:40;;;;;;;0.40;0.40;;;7.30;99.90;;;;;;5051135;28;20231;-80
2021/05/02 00:40:31;;;;;;;0.83;0.83;;;7.30;99.90;;;;;;5049618;28;20214;-79
2021/05/02 00:43:01;;;;;;;0.33;0.33;;;7.30;99.90;;;;;;5036875;28;20759;-79
2021/05/02 00:46:01;;;;;;;1.13;1.13;;;7.30;99.90;;;;;;5065768;28;20306;-79
2021/05/02 00:48:36;;;;;;;0.20;0.20;;;7.30;99.90;;;;;;5065425;28;20217;-81
2021/05/02 00:51:06;;;;;;;1.00;0.90;;;7.30;99.90;;;;;;5047755;28;20223;-81
2021/05/02 00:54:07;;;;;;;0.40;0.40;;;7.20;99.90;;;;;;5051053;28;20278;-81
2021/05/02 00:56:39;;;;;;;0.60;0.57;;;7.20;99.90;;;;;;5066377;28;20661;-82
2021/05/02 00:59:07;;;;;;;0.40;0.40;;;7.20;99.90;;;;;;5051446;28;20192;-81
2021/05/02 01:01:39;;;;;;;0.67;0.67;;;7.20;99.90;;;;;;5069990;28;20216;-81
2021/05/02 01:04:06;;;;;;;0.43;0.40;;;7.20;99.90;;;;;;5070682;28;20233;-80
2021/05/02 01:06:33;;;;;;;0.50;0.47;;;7.10;99.90;;;;;;5035348;28;20247;-82
2021/05/02 01:09:02;;;;;;;0.20;0.20;;;7.10;99.90;;;;;;5034987;28;20265;-82
2021/05/02 01:11:29;;;;;;;0.40;0.40;;;7.00;99.90;;;;;;5051407;28;20177;-81
2021/05/02 01:14:00;;;;;;;1.23;0.57;;;7.00;99.90;;;;;;5069840;28;20190;-82
2021/05/02 01:16:28;;;;;;;0.53;0.53;;;6.90;99.90;;;;;;5066963;28;20232;-81
2021/05/02 01:18:56;;;;;;;0.73;0.73;;;6.90;99.90;;;;;;5051698;28;20239;-82
2021/05/02 01:21:35;;;;;;;0.40;0.40;;;6.90;99.90;;;;;;5053096;28;20310;-81
2021/05/02 01:24:02;;;;;;;0.53;0.53;;;6.90;99.90;;;;;;5036860;28;20244;-80
2021/05/02 01:26:29;;;;;;;1.17;1.07;;;6.80;99.90;;;;;;5054569;28;20193;-81
2021/05/02 01:28:56;;;;;;;0.97;0.90;;;6.80;99.90;;;;;;5054444;28;21121;-79
2021/05/02 01:31:23;;;;;;;0.57;0.57;;;6.80;99.90;;;;;;5072118;28;20231;-80
2021/05/02 01:33:50;;;;;;;1.23;1.13;;;6.80;99.90;;;;;;5053847;28;20227;-79
2021/05/02 01:36:16;;;;;;;0.63;0.63;;;6.80;99.90;;;;;;5071288;28;20237;-80
2021/05/02 01:38:44;;;;;;;0.30;0.30;;;6.70;99.90;;;;;;5034961;28;20180;-79
2021/05/02 01:41:10;;;;;;;0.40;0.40;;;6.70;99.90;;;;;;5037537;28;20192;-79
2021/05/02 01:43:36;;;;;;;0.27;0.27;;;6.60;99.90;;;;;;5035679;28;20216;-79
2021/05/02 01:46:04;;;;;;;3.47;0.90;;;6.60;99.90;;;;;;5051850;28;20225;-79
2021/05/02 01:48:32;;;;;;;0.27;0.27;;;6.60;99.90;;;;;;5050823;28;20232;-78
2021/05/02 01:51:02;;;;;;;0.30;0.30;;;6.60;99.90;;;;;;5051234;28;20240;-82
2021/05/02 01:53:29;;;;;;;1.30;0.60;;;6.70;99.90;;;;;;5066777;28;20196;-81
2021/05/02 01:55:56;;;;;;;0.63;0.63;;;6.70;99.90;;;;;;5053289;28;20223;-80
2021/05/02 01:58:23;;;;;;;1.70;1.13;;;6.70;99.90;;;;;;5035459;28;20235;-79
2021/05/02 02:01:06;;;;;;;0.33;0.30;;;6.70;99.90;;;;;;5051902;28;20215;-79
2021/05/02 02:03:32;;;;;;;0.47;0.47;;;6.80;99.90;;;;;;5071613;28;20579;-79
2021/05/02 02:05:58;;;;;;;0.50;0.50;;;6.90;99.90;;;;;;5069287;28;20354;-80
2021/05/02 02:08:24;;;;;;;0.53;0.50;;;6.80;99.90;;;;;;5050397;28;20196;-80
2021/05/02 02:10:51;;;;;;;0.20;0.20;;;6.70;99.90;;;;;;5052601;28;20184;-79
2021/05/02 02:13:18;;;;;;;0.20;0.20;;;6.80;99.90;;;;;;5034290;28;20228;-80
2021/05/02 02:15:45;;;;;;;0.40;0.40;;;6.90;99.90;;;;;;5051681;28;20228;-80
2021/05/02 02:18:13;;;;;;;0.20;0.20;;;6.90;99.90;;;;;;5054435;28;20234;-80
2021/05/02 02:20:42;;;;;;;0.77;0.77;;;6.90;99.90;;;;;;5033937;28;21243;-81
2021/05/02 02:23:19;;;;;;;0.60;0.60;;;6.80;99.90;;;;;;5051447;28;20180;-79
2021/05/02 02:25:47;;;;;;;0.60;0.60;;;6.80;99.90;;;;;;5071774;28;20218;-80
2021/05/02 02:28:16;;;;;;;0.80;0.80;;;6.80;99.90;;;;;;5035984;28;21267;-79
2021/05/02 02:30:45;;;;;;;0.40;0.40;;;6.80;99.90;;;;;;5067917;28;20235;-80
2021/05/02 02:33:11;;;;;;;0.77;0.60;;;6.70;99.90;;;;;;5051514;28;20221;-79
2021/05/02 02:35:47;;;;;;;0.27;0.27;;;6.70;99.90;;;;;;5067787;28;20271;-80
2021/05/02 02:38:14;;;;;;;0.20;0.20;;;6.60;99.90;;;;;;5053252;28;20184;-79
2021/05/02 02:40:41;;;;;;;1.30;0.70;;;6.60;99.90;;;;;;5034460;28;20289;-80
2021/05/02 02:43:10;;;;;;;3.70;0.43;;;6.70;99.90;;;;;;5033898;28;20584;-80
2021/05/02 02:45:38;;;;;;;0.47;0.47;;;6.70;99.90;;;;;;5071267;28;20573;-80
2021/05/02 02:48:05;;;;;;;0.50;0.50;;;6.70;99.90;;;;;;5051803;28;21045;-80
2021/05/02 02:50:32;;;;;;;0.50;0.50;;;6.60;99.90;;;;;;5066830;28;20217;-79
2021/05/02 02:53:04;;;;;;;0.30;0.30;;;6.60;99.90;;;;;;5053284;28;20189;-79
2021/05/02 02:55:32;;;;;;;0.57;0.57;;;6.50;99.90;;;;;;5032742;28;20289;-81
2021/05/02 02:58:02;;;;;;;0.40;0.40;;;6.50;99.90;;;;;;5045194;28;20231;-81
2021/05/02 03:00:31;;;;;;;0.20;0.20;;;6.40;99.90;;;;;;5044578;28;20221;-78
2021/05/02 03:03:04;;;;;;;0.27;0.27;;;6.40;99.90;;;;;;5050692;28;20221;-80
2021/05/02 03:05:32;;;;;;;0.70;0.70;;;6.40;99.90;;;;;;5066396;28;20328;-80
2021/05/02 03:08:01;;;;;;;0.30;0.30;;;6.40;99.90;;;;;;5050476;28;20193;-81
2021/05/02 03:10:27;;;;;;;0.30;0.30;;;6.40;99.90;;;;;;5067150;28;20278;-81
2021/05/02 03:12:54;;;;;;;0.30;0.30;;;6.40;99.90;;;;;;5019075;28;20216;-80
2021/05/02 03:15:21;;;;;;;1.63;1.60;;;6.40;99.90;;;;;;5042192;28;20224;-80
2021/05/02 03:17:54;;;;;;;0.50;0.47;;;6.40;99.90;;;;;;5049196;28;20228;-82
2021/05/02 03:20:24;;;;;;;2.10;2.00;;;6.40;99.90;;;;;;5053337;28;20197;-81
2021/05/02 03:23:05;;;;;;;0.40;0.40;;;6.50;99.90;;;;;;5050724;28;20320;-81
2021/05/02 03:25:33;;;;;;;1.87;1.77;;;6.60;99.90;;;;;;5051145;28;21050;-79
2021/05/02 03:28:03;;;;;;;0.40;0.40;;;6.60;99.90;;;;;;5068621;28;20749;-82
2021/05/02 03:30:29;;;;;;;0.80;0.80;;;6.70;99.90;;;;;;5047593;28;20567;-82
2021/05/02 03:32:57;;;;;;;0.40;0.40;;;6.60;99.90;;;;;;5067556;28;20217;-80
2021/05/02 03:35:31;;;;;;;0.40;0.40;;;6.60;99.90;;;;;;5046881;28;20654;-80
2021/05/02 03:38:18;;;;;;;0.30;0.30;;;6.60;99.90;;;;;;5065596;28;20247;-80
2021/05/02 03:40:46;;;;;;;0.70;0.70;;;6.50;99.90;;;;;;5048997;28;20695;-79
2021/05/02 03:43:12;;;;;;;0.63;0.63;;;6.50;99.90;;;;;;5049143;28;20215;-79
2021/05/02 03:45:38;;;;;;;1.70;1.57;;;6.50;99.90;;;;;;5032273;28;20779;-81
2021/05/02 03:48:05;;;;;;;1.50;0.63;;;6.50;99.90;;;;;;5049806;28;20213;-79
2021/05/02 03:50:30;;;;;;;0.40;0.40;;;6.50;99.90;;;;;;5048732;28;20197;-80
2021/05/02 03:52:56;;;;;;;0.90;0.90;;;6.50;99.90;;;;;;5036741;28;20198;-80
2021/05/02 03:55:22;;;;;;;0.50;0.50;;;6.60;99.90;;;;;;5033571;28;20894;-80
2021/05/02 03:57:48;;;;;;;0.40;0.40;;;6.70;99.90;;;;;;5033557;28;21171;-80
2021/05/02 04:00:14;;;;;;;0.83;0.80;;;6.70;99.90;;;;;;5017000;28;20232;-80
2021/05/02 04:02:40;;;;;;;0.20;0.20;;;6.80;99.90;;;;;;5070561;28;20189;-80
2021/05/02 04:05:06;;;;;;;0.20;0.20;;;6.80;99.90;;;;;;5024266;28;20235;-80
2021/05/02 04:07:32;;;;;;;1.13;1.13;;;6.80;99.90;;;;;;5036370;28;20305;-82
2021/05/02 04:09:58;;;;;;;0.93;0.60;;;6.80;99.90;;;;;;5019333;28;20212;-80
2021/05/02 04:12:23;;;;;;;1.00;1.00;;;6.80;99.90;;;;;;5038947;28;20231;-80
2021/05/02 04:14:49;;;;;;;0.37;0.37;;;6.80;99.90;;;;;;5053165;28;20216;-79
2021/05/02 04:17:16;;;;;;;0.70;0.70;;;6.80;99.90;;;;;;5039226;28;20219;-79
2021/05/02 04:19:47;;;;;;;0.53;0.53;;;6.80;99.90;;;;;;5051718;28;20642;-81
2021/05/02 04:22:16;;;;;;;0.50;0.50;;;6.80;99.90;;;;;;5069213;28;20296;-79
2021/05/02 04:24:43;;;;;;;0.40;0.40;;;6.90;99.90;;;;;;5036762;28;20220;-78
2021/05/02 04:27:10;;;;;;;1.37;1.23;;;6.90;99.90;;;;;;5050786;28;20220;-81
2021/05/02 04:29:37;;;;;;;1.33;1.23;;;7.00;99.90;;;;;;5020275;28;20217;-79
2021/05/02 04:32:04;;;;;;;0.47;0.47;;;6.80;99.90;;;;;;5054011;28;20188;-81
2021/05/02 04:34:30;;;;;;;0.40;0.40;;;6.80;99.90;;;;;;5060939;28;20390;-80
2021/05/02 04:36:57;;;;;;;0.87;0.87;;;6.80;99.90;;;;;;5052428;28;20231;-80
2021/05/02 04:39:24;;;;;;;0.50;0.50;;;6.70;99.90;;;;;;5068980;28;20770;-79
2021/05/02 04:41:51;;;;;;;0.60;0.60;;;6.80;99.90;;;;;;5053345;28;20216;-80
2021/05/02 04:44:17;;;;;;;0.50;0.50;;;6.80;99.90;;;;;;5071534;28;20181;-79
2021/05/02 04:46:43;;;;;;;0.53;0.53;;;6.80;99.90;;;;;;5051275;28;20266;-79
2021/05/02 04:49:10;;;;;;;0.40;0.40;;;6.90;99.90;;;;;;5035612;28;20216;-79
2021/05/02 04:51:38;;;;;;;0.63;0.63;;;6.90;99.90;;;;;;5051708;28;21498;-79
2021/05/02 04:54:06;;;;;;;0.40;0.40;;;6.90;99.90;;;;;;5051029;28;20217;-80
2021/05/02 04:56:31;;;;;;;0.80;0.80;;;7.00;99.90;;;;;;5051752;28;20205;-80
2021/05/02 04:58:57;;;;;;;0.30;0.30;;;7.00;99.90;;;;;;5056632;28;20185;-81
2021/05/02 05:01:23;;;;;;;0.57;0.40;;;7.10;99.90;;;;;;5054722;28;20225;-80
2021/05/02 05:03:49;;;;;;;0.90;0.70;;;7.10;99.90;;;;;;5017306;28;20591;-80
2021/05/02 05:06:15;;;;;;;0.40;0.40;;;7.10;99.90;;;;;;5052971;28;20221;-80
2021/05/02 05:08:41;;;;;;;0.63;0.63;;;7.10;99.90;;;;;;5052007;28;20974;-80
2021/05/02 05:11:07;;;;;;;0.47;0.47;;;7.20;99.90;;;;;;5046061;28;21089;-79
2021/05/02 05:13:33;;;;;;;0.37;0.37;;;7.10;99.90;;;;;;5033942;28;20217;-80
2021/05/02 05:16:01;;;;;;;0.30;0.30;;;7.20;99.90;;;;;;5035192;28;20649;-80
2021/05/02 05:18:27;;;;;;;0.20;0.20;;;7.20;99.90;;;;;;5036180;28;20229;-80
2021/05/02 05:20:55;;;;;;;0.43;0.40;;;7.20;99.90;;;;;;5037318;28;20213;-80
2021/05/02 05:23:21;;;;;;;0.50;0.50;;;7.20;99.90;;;;;;5071861;28;20192;-79
2021/05/02 05:25:47;;;;;;;6.13;1.03;;;7.20;99.90;;;;;;5036524;28;20268;-79
2021/05/02 05:28:13;;;;;;;0.20;0.20;;;7.20;99.90;;;;;;5050446;28;20403;-79
2021/05/02 05:30:39;;;;;;;0.20;0.20;;;7.10;99.90;;;;;;5070681;28;20671;-79
2021/05/02 05:33:07;;;;;;;0.33;0.33;;;7.20;99.90;;;;;;5036582;28;20298;-79
2021/05/02 05:35:34;;;;;;;0.40;0.40;;;7.20;99.90;;;;;;5035512;28;20213;-81
2021/05/02 05:38:00;;;;;;;0.47;0.47;;;7.30;99.90;;;;;;5071931;28;20203;-81
2021/05/02 05:40:27;;;;;;;0.73;0.73;;;7.40;99.90;;;;;;5068859;28;20227;-80
2021/05/02 05:42:53;;;;;;;0.50;0.50;;;7.40;99.90;;;;;;5051807;28;20216;-79
2021/05/02 05:45:20;;;;;;;0.80;0.43;;;7.40;99.90;;;;;;5070791;28;20216;-80
2021/05/02 05:47:52;;;;;;;0.60;0.60;;;7.30;99.90;;;;;;5034442;28;20221;-81
2021/05/02 05:50:19;;;;;;;0.40;0.40;;;7.40;99.90;;;;;;5055781;28;20188;-80
2021/05/02 05:52:46;;;;;;;0.30;0.30;;;7.40;99.90;;;;;;5050212;28;20299;-83
2021/05/02 05:55:13;;;;;;;0.97;0.70;;;7.40;99.90;;;;;;5048292;28;20213;-81
2021/05/02 05:57:40;;;;;;;0.30;0.30;;;7.70;99.90;;;;;;5029359;28;20232;-79
2021/05/02 06:00:08;;;;;;;0.20;0.20;;;7.60;99.90;;;;;;5069042;28;20662;-83
2021/05/02 06:02:35;;;;;;;0.40;0.40;;;7.60;99.90;;;;;;5068299;28;20194;-79
2021/05/02 06:05:00;;;;;;;0.57;0.50;;;7.50;99.90;;;;;;5053007;28;20421;-81
2021/05/02 06:07:26;;;;;;;4.83;0.87;;;7.60;99.90;;;;;;5052419;28;20690;-79
2021/05/02 06:09:52;;;;;;;0.40;0.40;;;9.00;99.90;;;;;;5035285;28;20258;-81
2021/05/02 06:12:19;;;;;;;0.60;0.60;;;9.50;99.90;;;;;;5051041;28;20247;-82
2021/05/02 06:14:45;;;;;;;0.50;0.40;;;8.90;99.90;;;;;;5017713;28;20314;-82
2021/05/02 06:17:11;;;;;;;1.03;0.40;;;9.60;99.90;;;;;;5035930;28;21334;-79
2021/05/02 06:19:37;;;;;;;0.40;0.40;;;10.20;99.90;;;;;;5033533;28;20229;-80
2021/05/02 06:22:03;;;;;;;1.07;0.87;;;9.00;99.90;;;;;;5017637;28;20217;-80
2021/05/02 06:24:29;;;;;;;0.57;0.57;;;8.40;99.90;;;;;;5033350;28;20239;-79
2021/05/02 06:26:55;;;;;;;0.20;0.20;;;8.20;99.90;;;;;;5034712;28;20251;-81
2021/05/02 06:29:22;;;;;;;0.40;0.40;;;8.20;99.90;;;;;;5050870;28;20215;-80
2021/05/02 06:31:48;;;;;;;0.93;0.80;;;8.30;99.90;;;;;;5050097;28;20252;-80
2021/05/02 06:34:14;;;;;;;0.97;0.97;;;8.30;99.90;;;;;;5050469;28;20304;-79
2021/05/02 06:36:41;;;;;;;0.33;0.33;;;8.20;99.90;;;;;;5034066;28;20257;-80
2021/05/02 06:39:08;;;;;;;3.80;0.77;;;8.30;99.90;;;;;;5035688;28;20225;-79
2021/05/02 06:41:36;;;;;;;0.50;0.50;;;8.30;99.90;;;;;;5035400;28;20185;-79
2021/05/02 06:44:02;;;;;;;0.30;0.30;;;8.90;99.90;;;;;;5050618;28;20269;-80
2021/05/02 06:46:29;;;;;;;0.63;0.63;;;8.80;99.90;;;;;;5067648;28;20250;-79
2021/05/02 06:49:03;;;;;;;0.30;0.30;;;8.70;99.90;;;;;;5049500;28;20644;-82
2021/05/02 06:51:29;;;;;;;0.60;0.60;;;8.30;99.90;;;;;;5049984;28;20244;-80
2021/05/02 06:53:56;;;;;;;0.30;0.30;;;8.40;99.90;;;;;;5065451;28;20216;-80
2021/05/02 06:56:22;;;;;;;0.40;0.40;;;8.20;99.90;;;;;;5067085;28;20248;-80
2021/05/02 06:58:49;;;;;;;0.30;0.30;;;8.30;99.90;;;;;;5050028;28;20221;-80
2021/05/02 07:01:16;;;;;;;0.30;0.30;;;8.30;99.90;;;;;;5035791;28;20343;-80
2021/05/02 07:03:42;;;;;;;0.40;0.40;;;8.30;99.90;;;;;;5069465;28;20251;-80
2021/05/02 07:06:08;;;;;;;6.17;0.57;;;8.40;99.90;;;;;;5034326;28;20228;-80
2021/05/02 07:08:34;;;;;;;3.90;0.50;;;9.40;99.90;;;;;;5032074;28;20320;-80
2021/05/02 07:11:00;;;;;;;0.27;0.27;;;10.40;99.90;;;;;;5071056;28;20255;-81
2021/05/02 07:13:27;;;;;;;0.40;0.40;;;9.80;99.90;;;;;;5050800;28;20580;-81
2021/05/02 07:15:53;;;;;;;5.50;5.30;;;9.00;99.90;;;;;;5070588;28;20234;-80
2021/05/02 07:18:19;;;;;;;0.63;0.63;;;8.50;99.90;;;;;;5035239;28;20212;-81
2021/05/02 07:20:46;;;;;;;0.57;0.53;;;8.40;99.90;;;;;;5051971;28;20266;-82
2021/05/02 07:23:11;;;;;;;0.40;0.40;;;8.30;99.90;;;;;;5034027;28;20268;-83
2021/05/02 07:25:37;;;;;;;1.20;0.97;;;8.20;99.90;;;;;;5049648;28;21048;-80
2021/05/02 07:28:03;;;;;;;0.30;0.30;;;8.10;99.90;;;;;;5050504;28;20685;-80
2021/05/02 07:30:29;;;;;;;0.40;0.40;;;9.20;99.90;;;;;;5033971;28;20315;-82
2021/05/02 07:32:55;;;;;;;0.93;0.70;;;10.60;99.90;;;;;;5032954;28;20211;-78
2021/05/02 07:35:21;;;;;;;0.43;0.43;;;10.70;99.90;;;;;;5064923;28;20206;-82
2021/05/02 07:37:46;;;;;;;0.30;0.30;;;10.70;99.90;;;;;;5060194;28;20751;-80
2021/05/02 07:40:13;;;;;;;0.40;0.40;;;10.90;99.90;;;;;;5012288;28;20213;-81
2021/05/02 07:42:39;;;;;;;0.40;0.40;;;10.30;99.90;;;;;;5043951;28;20217;-81
2021/05/02 07:45:06;;;;;;;0.30;0.30;;;11.30;99.90;;;;;;5047354;28;20351;-80
2021/05/02 07:47:32;;;;;;;0.63;0.23;;;10.40;99.90;;;;;;5046549;28;20193;-81
2021/05/02 07:49:58;;;;;;;0.47;0.47;;;9.30;99.90;;;;;;5049365;28;20230;-80
2021/05/02 07:52:24;;;;;;;0.60;0.60;;;10.40;99.90;;;;;;5047742;28;20304;-80
2021/05/02 07:54:50;;;;;;;1.30;1.20;;;11.00;99.90;;;;;;5066799;28;20618;-80
2021/05/02 07:57:16;;;;;;;0.20;0.20;;;11.30;99.90;;;;;;5016186;28;20788;-80
2021/05/02 07:59:41;;;;;;;0.50;0.50;;;11.00;99.90;;;;;;5051613;28;20188;-80
2021/05/02 08:02:09;;;;;;;1.87;0.47;;;10.90;99.90;;;;;;5047512;28;20234;-84
2021/05/02 08:04:38;;;;;;;0.50;0.50;;;10.60;99.90;;;;;;5065467;28;20256;-81
2021/05/02 08:07:08;;;;;;;1.10;0.43;;;9.90;99.90;;;;;;5045796;28;20209;-81
2021/05/02 08:09:34;;;;;;;0.30;0.30;;;10.30;99.90;;;;;;5044609;28;20290;-82
2021/05/02 08:12:01;;;;;;;1.23;0.77;;;9.40;99.90;;;;;;5063383;28;20208;-80
2021/05/02 08:14:27;;;;;;;0.40;0.40;;;9.20;99.90;;;;;;5014110;28;20284;-80
2021/05/02 08:16:53;;;;;;;1.43;0.47;;;9.50;99.90;;;;;;5029818;28;20208;-81
2021/05/02 08:19:19;;;;;;;0.40;0.40;;;9.80;99.90;;;;;;5063305;28;20212;-82
2021/05/02 08:21:45;;;;;;;0.33;0.33;;;10.60;99.90;;;;;;5043530;28;20247;-80
2021/05/02 08:24:14;;;;;;;0.40;0.40;;;11.10;99.90;;;;;;5045915;28;20224;-81
2021/05/02 08:26:40;;;;;;;0.20;0.20;;;11.30;99.90;;;;;;5016128;28;20193;-80
2021/05/02 08:29:06;;;;;;;0.57;0.57;;;10.90;99.90;;;;;;5047764;28;20273;-82
2021/05/02 08:31:33;;;;;;;0.57;0.57;;;11.40;99.90;;;;;;5029815;28;20355;-81
2021/05/02 08:33:59;;;;;;;0.80;0.80;;;11.80;99.90;;;;;;5065818;28;20327;-80
2021/05/02 08:36:25;;;;;;;0.40;0.33;;;11.80;99.90;;;;;;5045999;28;20237;-81
2021/05/02 08:38:51;;;;;;;0.80;0.57;;;11.90;99.90;;;;;;5028432;28;20221;-80
2021/05/02 08:41:16;;;;;;;0.53;0.50;;;11.80;99.90;;;;;;5065016;28;20213;-83
2021/05/02 08:43:43;;;;;;;0.97;0.70;;;11.00;99.90;;;;;;5015973;28;20683;-80
2021/05/02 08:46:09;;;;;;;0.93;0.93;;;11.70;99.90;;;;;;5029585;28;20217;-83
2021/05/02 08:48:35;;;;;;;0.70;0.70;;;11.50;99.90;;;;;;5051810;28;20248;-82
2021/05/02 08:51:01;;;;;;;0.50;0.37;;;12.10;99.90;;;;;;5069854;28;20872;-83
2021/05/02 08:53:27;;;;;;;0.20;0.20;;;12.10;99.90;;;;;;5054211;28;20196;-81
2021/05/02 08:55:56;;;;;;;5.40;1.13;;;12.30;99.90;;;;;;5071871;28;20235;-83
2021/05/02 08:58:24;;;;;;;0.40;0.40;;;11.70;99.90;;;;;;5036768;28;20235;-83
2021/05/02 09:00:51;;;;;;;0.47;0.47;;;12.30;99.90;;;;;;5053158;28;20213;-83
2021/05/02 09:03:17;;;;;;;0.70;0.40;;;11.90;99.90;;;;;;5052732;28;20331;-83
2021/05/02 09:05:47;;;;;;;3.20;0.93;;;12.40;99.90;;;;;;5036289;28;20220;-81
2021/05/02 09:08:35;;;;;;;0.60;0.60;;;11.40;99.90;;;;;;5038447;28;20196;-83
2021/05/02 09:11:02;;;;;;;0.30;0.30;;;12.00;99.90;;;;;;5053868;28;21690;-84
2021/05/02 09:13:29;;;;;;;16.97;0.90;;;12.00;99.90;;;;;;5060634;28;20217;-82
2021/05/02 09:16:03;;;;;;;0.50;0.50;;;12.00;99.90;;;;;;5050375;28;20602;-84
2021/05/02 09:18:35;;;;;;;4.03;0.83;;;12.50;99.90;;;;;;5053877;28;20300;-83
2021/05/02 09:21:03;;;;;;;0.30;0.30;;;12.30;99.90;;;;;;5053038;28;20220;-81
2021/05/02 09:23:42;;;;;;;0.40;0.40;;;12.60;99.90;;;;;;5034598;28;20203;-81
2021/05/02 09:26:27;;;;;;;0.50;0.50;;;11.80;99.90;;;;;;5037412;28;20214;-83
2021/05/02 09:28:55;;;;;;;2.30;0.33;;;11.30;99.90;;;;;;5053027;28;20341;-81
2021/05/02 09:31:33;;;;;;;0.30;0.30;;;11.00;99.90;;;;;;5034324;28;20224;-85
2021/05/02 09:34:17;;;;;;;0.63;0.63;;;11.70;99.90;;;;;;5068895;28;20227;-84
2021/05/02 09:36:57;;;;;;;0.50;0.40;;;11.50;99.90;;;;;;5069593;28;20250;-84
2021/05/02 09:39:41;;;;;;;0.30;0.30;;;11.40;99.90;;;;;;5052595;28;20287;-83
2021/05/02 09:42:09;;;;;;;0.40;0.40;;;11.60;99.90;;;;;;5051487;28;20221;-83
2021/05/02 09:44:47;;;;;;;0.80;0.80;;;11.70;99.90;;;;;;5067844;28;20189;-83
2021/05/02 09:47:36;;;;;;;0.40;0.40;;;10.90;99.90;;;;;;5051865;28;20181;-84
2021/05/02 09:50:14;;;;;;;0.27;0.27;;;11.00;99.90;;;;;;5052138;28;20221;-83
2021/05/02 09:52:49;;;;;;;0.20;0.20;;;10.80;99.90;;;;;;5053787;28;20216;-82
2021/05/02 09:55:22;;;;;;;0.43;0.43;;;10.60;99.90;;;;;;5051943;28;20217;-81
2021/05/02 09:57:52;;;;;;;0.40;0.40;;;10.30;99.90;;;;;;5060848;28;20284;-83
2021/05/02 10:00:37;;;;;;;0.20;0.20;;;10.30;99.90;;;;;;5035136;28;20556;-84
2021/05/02 10:03:08;;;;;;;1.70;0.63;;;10.00;99.90;;;;;;5050469;28;21311;-81
2021/05/02 10:05:35;;;;;;;0.50;0.50;;;9.90;99.90;;;;;;5069352;28;20228;-82
2021/05/02 10:08:02;;;;;;;0.93;0.50;;;9.90;99.90;;;;;;5035192;28;20197;-83
2021/05/02 10:10:28;;;;;;;0.50;0.50;;;10.50;99.90;;;;;;5053067;28;20221;-82
2021/05/02 10:12:55;;;;;;;0.30;0.30;;;11.70;99.90;;;;;;5049536;28;20659;-82
2021/05/02 10:15:22;;;;;;;0.50;0.50;;;10.80;99.90;;;;;;5068284;28;20983;-82
2021/05/02 10:17:52;;;;;;;0.20;0.20;;;10.30;99.90;;;;;;5051609;28;20239;-82
2021/05/02 10:20:19;;;;;;;1.73;1.03;;;10.20;99.90;;;;;;5066121;28;20185;-82
2021/05/02 10:22:46;;;;;;;0.53;0.53;;;10.10;99.90;;;;;;5068517;28;20220;-83
2021/05/02 10:25:13;;;;;;;0.40;0.33;;;10.90;99.90;;;;;;5050975;28;20690;-82
2021/05/02 10:27:47;;;;;;;1.00;0.63;;;11.60;99.90;;;;;;5004237;28;20373;-83
2021/05/02 10:30:41;;;;;;;0.53;0.53;;;11.90;99.90;;;;;;5064306;28;21176;-83
2021/05/02 10:33:13;;;;;;;0.93;0.30;;;12.10;99.90;;;;;;5047864;28;20224;-85
2021/05/02 10:35:58;;;;;;;0.53;0.53;;;11.00;99.90;;;;;;5049795;28;20228;-82
2021/05/02 10:38:43;;;;;;;0.40;0.40;;;10.50;99.90;;;;;;5064179;28;20243;-83
2021/05/02 10:41:25;;;;;;;0.30;0.30;;;10.00;99.90;;;;;;5047219;28;20294;-84
2021/05/02 10:43:52;;;;;;;0.40;0.40;;;9.50;99.90;;;;;;5065331;28;20184;-85
2021/05/02 10:46:48;;;;;;;0.63;0.50;;;8.90;99.90;;;;;;5053788;28;20768;-82
2021/05/02 10:49:20;;;;;;;0.10;0.10;;;9.60;99.90;;;;;;5067271;28;20213;-84
2021/05/02 10:51:47;;;;;;;0.20;0.20;;;10.40;99.90;;;;;;5066810;28;20247;-84
2021/05/02 10:54:15;;;;;;;0.63;0.63;;;9.90;99.90;;;;;;5051683;28;20233;-83
2021/05/02 10:56:48;;;;;;;0.50;0.43;;;9.60;99.90;;;;;;5068995;28;20947;-81
2021/05/02 10:59:15;;;;;;;0.40;0.40;;;9.70;99.90;;;;;;5047991;28;20240;-83
2021/05/02 11:01:41;;;;;;;0.70;0.60;;;9.30;99.90;;;;;;5067109;28;20192;-82
2021/05/02 11:04:07;;;;;;;0.40;0.40;;;9.50;99.90;;;;;;5045501;28;20240;-81
2021/05/02 11:06:39;;;;;;;0.73;0.37;;;9.30;99.90;;;;;;5056654;28;20723;-82
2021/05/02 11:09:09;;;;;;;0.50;0.50;;;9.70;99.90;;;;;;5044493;28;20221;-82
2021/05/02 11:11:42;;;;;;;2.33;0.97;;;9.50;99.90;;;;;;4973856;28;20702;-81
2021/05/02 11:16:58;;;;;;;0.63;0.40;;;9.20;99.90;;;;;;5063788;28;20266;-82
2021/05/02 11:19:32;;;;;;;0.90;0.50;;;9.40;99.90;;;;;;5067731;28;20200;-82
2021/05/02 11:22:02;;;;;;;0.80;0.80;;;9.40;99.90;;;;;;5056581;28;21075;-81
2021/05/02 11:24:52;;;;;;;2.77;0.57;;;9.60;99.90;;;;;;5043190;28;20224;-82
2021/05/02 11:27:41;;;;;;;2.23;1.60;;;9.60;99.90;;;;;;5052626;28;20223;-83
2021/05/02 11:30:10;;;;;;;0.30;0.30;;;9.50;99.90;;;;;;5064736;28;20220;-81
2021/05/02 11:32:42;;;;;;;1.03;0.60;;;9.50;99.90;;;;;;5063147;28;20255;-80
2021/05/02 11:35:16;;;;;;;1.23;1.00;;;9.60;99.90;;;;;;5046428;28;20223;-83
2021/05/02 11:37:54;;;;;;;0.40;0.40;;;9.80;99.90;;;;;;5048127;28;20356;-83
2021/05/02 11:40:32;;;;;;;1.90;0.27;;;9.90;99.90;;;;;;5065069;28;21018;-82
2021/05/02 11:43:07;;;;;;;0.40;0.40;;;10.10;99.90;;;;;;5048902;28;20225;-82
2021/05/02 11:45:53;;;;;;;0.53;0.53;;;10.00;99.90;;;;;;5045695;28;20211;-81
2021/05/02 11:48:27;;;;;;;0.40;0.40;;;10.10;99.90;;;;;;5046999;28;20539;-83
2021/05/02 11:50:57;;;;;;;2.83;0.80;;;10.30;99.90;;;;;;5045660;28;20270;-83
2021/05/02 11:53:49;;;;;;;0.33;0.33;;;10.90;99.90;;;;;;5047320;28;20220;-81
2021/05/02 11:56:22;;;;;;;0.20;0.20;;;11.10;99.90;;;;;;5063489;28;20233;-80
2021/05/02 11:58:50;;;;;;;0.70;0.70;;;11.50;99.90;;;;;;5043331;28;20246;-80
2021/05/02 12:01:24;;;;;;;0.60;0.60;;;11.40;99.90;;;;;;5047877;28;20192;-80
2021/05/02 12:03:51;;;;;;;0.37;0.37;;;11.40;99.90;;;;;;5055549;28;20224;-80
2021/05/02 12:06:20;;;;;;;2.57;0.60;;;10.80;99.90;;;;;;5045196;28;20237;-81
2021/05/02 12:08:46;;;;;;;0.60;0.37;;;10.80;99.90;;;;;;5043566;28;20232;-82
2021/05/02 12:11:13;;;;;;;0.43;0.43;;;10.50;99.90;;;;;;5029935;28;20291;-82
2021/05/02 12:13:40;;;;;;;0.10;0.10;;;10.50;99.90;;;;;;5061056;28;20658;-81
2021/05/02 12:16:14;;;;;;;2.30;0.43;;;10.30;99.90;;;;;;5048217;28;20237;-81
2021/05/02 12:18:42;;;;;;;0.40;0.40;;;9.90;99.90;;;;;;5046100;28;20553;-79
2021/05/02 12:21:11;;;;;;;0.40;0.40;;;10.00;99.90;;;;;;5059939;28;20209;-80
2021/05/02 12:23:37;;;;;;;1.83;0.23;;;10.30;99.90;;;;;;5066121;28;20225;-81
2021/05/02 12:26:07;;;;;;;0.30;0.30;;;9.70;99.90;;;;;;5031336;28;20852;-81
2021/05/02 12:28:33;;;;;;;0.90;0.90;;;9.50;99.90;;;;;;5049268;28;20315;-81
2021/05/02 12:30:58;;;;;;;0.23;0.23;;;9.40;99.90;;;;;;5047700;28;20213;-81
2021/05/02 12:33:24;;;;;;;0.30;0.30;;;9.50;99.90;;;;;;5031518;28;20225;-82
2021/05/02 12:35:50;;;;;;;0.30;0.30;;;9.50;99.90;;;;;;5061051;28;20236;-82
2021/05/02 12:38:26;;;;;;;0.50;0.40;;;9.40;99.90;;;;;;5044830;28;20248;-81
2021/05/02 12:40:52;;;;;;;0.40;0.40;;;9.50;99.90;;;;;;5045848;28;20195;-82
2021/05/02 12:43:27;;;;;;;0.10;0.10;;;9.40;99.90;;;;;;5033224;28;20185;-82
2021/05/02 12:45:54;;;;;;;0.73;0.73;;;9.40;99.90;;;;;;5063611;28;20800;-81
2021/05/02 12:48:29;;;;;;;0.37;0.37;;;9.70;99.90;;;;;;5033309;28;20266;-84
2021/05/02 12:50:56;;;;;;;0.40;0.40;;;10.40;99.90;;;;;;5050073;28;20300;-81
2021/05/02 12:53:34;;;;;;;0.53;0.50;;;10.60;99.90;;;;;;5066691;28;20651;-82
2021/05/02 12:56:00;;;;;;;3.23;0.40;;;11.10;99.90;;;;;;5066797;28;20272;-81
2021/05/02 12:58:40;;;;;;;0.37;0.23;;;10.80;99.90;;;;;;5035653;28;21206;-83
2021/05/02 13:01:17;;;;;;;1.07;0.73;;;10.60;99.90;;;;;;5064763;28;20772;-81
2021/05/02 13:03:57;;;;;;;0.53;0.53;;;10.70;99.90;;;;;;5061341;28;20259;-83
2021/05/02 13:06:26;;;;;;;0.40;0.40;;;10.80;99.90;;;;;;5067726;28;20228;-82